Guantánamo Bay Naval Air Station (NBW/MUGM)




Flight Aircraft Arriving
CMB7584 B752
KNGU - Norfolk Naval Station (Chambers Field)
United StatesVirginia Norfolk, Virginia
Flight Aircraft Departing
CMB7583 B752
KNGU - Norfolk Naval Station (Chambers Field)
United StatesVirginia Norfolk, Virginia
Airport Information
Location: Guantanamo, CU
Coordinates: 19.9065 / -75.2071
Elevation:
Time Offset:
Local Time:
UTC Time:
Jet A Price: $/lbs

Current Weather
METAR: MUGM 261451Z AUTO 02011KT 10SM FEW041 28/21 A3004 RMK AO2 SLP172 T02780206 50005 TSNO $
TAF: TAF MUGM 2607/2707 34010KT 9999 FEW030 SCT070 QNH2993INS BECMG 2616/2618 10015G22KT 9999 FEW030 SCT060 QNH2985INS BECMG 2622/2700 35009KT 9999 FEW030 SCT060 QNH2986INS T21/2610Z T31/2619Z FN00205

Recent Arrivals
Date Flight Type Depart
12/22/2019 CMB7583 B752 Norfolk Naval Station (Chambers Field) (KNGU)
01/13/2019 CMB803 B752 Jacksonville Naval Air Station (KNIP)
09/25/2018 CPX803 B752 Jacksonville Naval Air Station (KNIP)
Recent Departures
Date Flight Type Arrive
12/24/2019 CMB7584 B752 Norfolk Naval Station (Chambers Field) (KNGU)
01/14/2019 CPX804 B752 Jacksonville Naval Air Station (KNIP)
09/28/2018 CPX804 B752 Jacksonville Naval Air Station (KNIP)